createdAt,value
2023-11-05T00:00:40.538Z,98392.75
2023-11-05T00:03:45.142Z,98387.53
2023-11-05T00:06:47.629Z,98386.69
2023-11-05T00:09:50.083Z,98387.56
2023-11-05T00:12:52.464Z,98383.25
2023-11-05T00:15:55.914Z,98379.81
2023-11-05T00:18:58.549Z,98388.50
2023-11-05T00:22:01.045Z,98383.28
2023-11-05T00:25:03.811Z,98377.19
2023-11-05T00:28:06.299Z,98371.13
2023-11-05T00:31:08.812Z,98372.03
2023-11-05T00:34:12.646Z,98383.34
2023-11-05T00:37:15.215Z,98392.88
2023-11-05T00:40:17.788Z,98393.75
2023-11-05T00:43:22.213Z,98398.06
2023-11-05T00:46:24.839Z,98393.78
2023-11-05T00:49:27.393Z,98387.69
2023-11-05T00:52:29.914Z,98381.59
2023-11-05T00:55:32.388Z,98378.13
2023-11-05T00:58:34.973Z,98387.69
2023-11-05T01:01:37.490Z,98382.50
2023-11-05T01:04:40.027Z,98382.47
2023-11-05T01:07:43.529Z,98377.28
2023-11-05T01:10:47.072Z,98378.16
2023-11-05T01:13:49.582Z,98374.69
2023-11-05T01:16:52.128Z,98383.38
2023-11-05T01:19:54.585Z,98373.78
2023-11-05T01:22:57.369Z,98377.28
2023-11-05T01:25:59.807Z,98359.88
2023-11-05T01:29:02.989Z,98361.66
2023-11-05T01:32:05.583Z,98363.38
2023-11-05T01:35:07.999Z,98350.38
2023-11-05T01:38:10.453Z,98351.25
2023-11-05T01:41:12.954Z,98355.56
2023-11-05T01:44:15.400Z,98340.78
2023-11-05T01:47:17.931Z,98325.16
2023-11-05T01:50:20.398Z,98314.75
2023-11-05T01:53:24.886Z,98307.78
2023-11-05T01:56:29.037Z,98305.19
2023-11-05T01:59:31.565Z,98306.06
2023-11-05T02:02:34.458Z,98306.06
2023-11-05T02:05:37.184Z,98316.47
2023-11-05T02:08:42.822Z,98310.38
2023-11-05T02:11:45.322Z,98299.06
2023-11-05T02:14:55.672Z,98299.94
2023-11-05T02:17:58.480Z,98299.06
2023-11-05T02:21:01.175Z,98293.88
2023-11-05T02:24:04.097Z,98295.59
2023-11-05T02:27:06.642Z,98293.00
2023-11-05T02:30:09.453Z,98292.13
2023-11-05T02:33:12.170Z,98278.22
2023-11-05T02:36:14.641Z,98280.81
2023-11-05T02:39:18.373Z,98292.97
2023-11-05T02:42:20.813Z,98285.16
2023-11-05T02:45:23.224Z,98286.91
2023-11-05T02:48:25.700Z,98286.03
2023-11-05T02:51:28.207Z,98286.91
2023-11-05T02:54:32.061Z,98285.16
2023-11-05T02:57:36.468Z,98289.53
2023-11-05T03:00:38.925Z,98286.91
2023-11-05T03:03:41.436Z,98277.34
2023-11-05T03:06:43.907Z,98272.97
2023-11-05T03:09:46.434Z,98267.75
2023-11-05T03:12:48.924Z,98249.47
2023-11-05T03:15:51.366Z,98249.50
2023-11-05T03:18:53.870Z,98240.75
2023-11-05T03:21:56.437Z,98227.75
2023-11-05T03:24:58.885Z,98209.47
2023-11-05T03:28:01.404Z,98204.28
2023-11-05T03:31:04.228Z,98192.94
2023-11-05T03:34:06.794Z,98195.56
2023-11-05T03:37:09.401Z,98186.84
2023-11-05T03:40:12.661Z,98189.47
2023-11-05T03:43:16.003Z,98186.84
2023-11-05T03:46:19.753Z,98181.63
2023-11-05T03:49:22.459Z,98179.91
2023-11-05T03:52:25.054Z,98177.28
2023-11-05T03:55:27.545Z,98179.03
2023-11-05T03:58:30.414Z,98159.91
2023-11-05T04:01:33.071Z,98149.47
2023-11-05T04:04:36.513Z,98140.81
2023-11-05T04:07:39.132Z,98134.72
2023-11-05T04:10:41.737Z,98122.53
2023-11-05T04:13:45.314Z,98120.81
2023-11-05T04:16:47.806Z,98113.84
2023-11-05T04:19:50.598Z,98099.06
2023-11-05T04:22:53.231Z,98094.75
2023-11-05T04:25:55.823Z,98073.88
2023-11-05T04:28:59.808Z,98066.06
2023-11-05T04:32:04.799Z,98059.09
2023-11-05T04:35:07.657Z,98055.63
2023-11-05T04:38:10.220Z,98050.41
2023-11-05T04:41:12.774Z,98055.59
2023-11-05T04:44:15.287Z,98048.63
2023-11-05T04:47:17.797Z,98038.19
2023-11-05T04:50:20.217Z,98026.00
2023-11-05T04:53:22.765Z,98023.41
2023-11-05T04:56:26.993Z,98017.34
2023-11-05T04:59:29.564Z,98012.09
2023-11-05T05:02:32.013Z,97998.16
2023-11-05T05:05:36.056Z,97994.75
2023-11-05T05:08:38.552Z,98007.78
2023-11-05T05:11:41.019Z,97995.66
2023-11-05T05:14:43.462Z,98017.34
2023-11-05T05:17:46.128Z,98000.88
2023-11-05T05:20:49.162Z,98001.75
2023-11-05T05:23:51.571Z,98015.59
2023-11-05T05:26:53.985Z,98018.25
2023-11-05T05:29:56.463Z,98005.22
2023-11-05T05:32:59.080Z,98010.44
2023-11-05T05:36:01.692Z,98001.72
2023-11-05T05:39:04.413Z,98006.94
2023-11-05T05:42:07.459Z,98020.00
2023-11-05T05:45:10.408Z,98012.16
2023-11-05T05:48:12.831Z,98013.88
2023-11-05T05:51:15.936Z,98012.16
2023-11-05T05:54:18.981Z,98000.91
2023-11-05T05:57:21.469Z,98000.91
2023-11-05T06:00:23.927Z,97994.81
2023-11-05T06:03:26.360Z,97970.47
2023-11-05T06:06:28.822Z,97938.31
2023-11-05T06:09:31.256Z,97912.25
2023-11-05T06:12:34.680Z,97916.59
2023-11-05T06:15:37.402Z,97939.22
2023-11-05T06:18:40.233Z,97922.69
2023-11-05T06:21:46.469Z,97917.47
2023-11-05T06:24:49.074Z,97936.59
2023-11-05T06:27:51.865Z,97946.97
2023-11-05T06:30:56.169Z,97933.88
2023-11-05T06:33:58.610Z,97912.09
2023-11-05T06:37:03.056Z,97855.63
2023-11-05T06:40:06.767Z,97854.66
2023-11-05T06:43:09.211Z,97848.59
2023-11-05T06:46:11.675Z,97841.59
2023-11-05T06:49:14.185Z,97833.78
2023-11-05T06:52:16.626Z,97827.69
2023-11-05T06:55:19.208Z,97814.63
2023-11-05T06:58:21.824Z,97810.22
2023-11-05T07:01:25.712Z,97788.41
2023-11-05T07:04:28.160Z,97785.81
2023-11-05T07:07:31.689Z,97774.47
2023-11-05T07:10:34.243Z,97763.09
2023-11-05T07:13:37.366Z,97755.28
2023-11-05T07:16:39.804Z,97739.63
2023-11-05T07:19:42.252Z,97744.81
2023-11-05T07:22:45.371Z,97754.31
2023-11-05T07:25:47.939Z,97753.38
2023-11-05T07:28:50.422Z,97750.75
2023-11-05T07:31:53.067Z,97738.56
2023-11-05T07:34:56.806Z,97746.38
2023-11-05T07:37:59.246Z,97735.03
2023-11-05T07:41:01.668Z,97719.28
2023-11-05T07:44:04.359Z,97715.72
2023-11-05T07:47:07.104Z,97707.88
2023-11-05T07:50:11.070Z,97690.47
2023-11-05T07:53:17.285Z,97699.06
2023-11-05T07:56:21.388Z,97690.28
2023-11-05T07:59:23.916Z,97686.78
2023-11-05T08:02:26.356Z,97683.34
2023-11-05T08:05:29.132Z,97678.88
2023-11-05T08:08:32.039Z,97677.97
2023-11-05T08:11:34.474Z,97676.25
2023-11-05T08:14:37.036Z,97679.72
2023-11-05T08:17:39.586Z,97689.31
2023-11-05T08:20:45.084Z,97674.44
2023-11-05T08:23:49.431Z,97670.16
2023-11-05T08:26:51.848Z,97678.78
2023-11-05T08:29:54.502Z,97670.19
2023-11-05T08:32:57.414Z,97677.97
2023-11-05T08:36:00.238Z,97677.97
2023-11-05T08:39:06.949Z,97681.41
2023-11-05T08:42:09.816Z,97678.88
2023-11-05T08:45:12.908Z,97680.59
2023-11-05T08:48:15.397Z,97683.09
2023-11-05T08:51:27.790Z,97675.28
2023-11-05T08:54:30.360Z,97647.44
2023-11-05T08:57:33.024Z,97647.31
2023-11-05T09:00:36.892Z,97655.19
2023-11-05T09:03:43.507Z,97626.41
2023-11-05T09:06:46.022Z,97625.53
2023-11-05T09:09:48.422Z,97633.25
2023-11-05T09:12:50.849Z,97636.75
2023-11-05T09:15:53.944Z,97628.06
2023-11-05T09:18:57.102Z,97619.34
2023-11-05T09:21:59.567Z,97648.88
2023-11-05T09:25:05.208Z,97669.72
2023-11-05T09:28:08.087Z,97683.63
2023-11-05T09:31:12.300Z,97702.75
2023-11-05T09:34:15.672Z,97714.94
2023-11-05T09:37:18.978Z,97737.59
2023-11-05T09:40:22.180Z,97758.59
2023-11-05T09:43:25.328Z,97725.47
2023-11-05T09:46:31.145Z,97664.28
2023-11-05T09:49:34.016Z,97661.47
2023-11-05T09:52:41.879Z,97658.88
2023-11-05T09:55:47.754Z,97629.22
2023-11-05T09:58:50.667Z,97641.44
2023-11-05T10:01:54.729Z,97601.47
2023-11-05T10:04:57.471Z,97509.03
2023-11-05T10:08:00.552Z,97438.53
2023-11-05T10:11:03.525Z,97411.47
2023-11-05T10:14:09.820Z,97472.53
2023-11-05T10:17:13.929Z,97527.31
2023-11-05T10:20:17.293Z,97566.47
2023-11-05T10:23:20.631Z,97550.72
2023-11-05T10:26:30.295Z,97446.38
2023-11-05T10:29:32.984Z,97487.31
2023-11-05T10:32:36.002Z,97431.59
2023-11-05T10:35:39.137Z,97428.81
2023-11-05T10:38:42.512Z,97516.00
2023-11-05T10:41:45.247Z,97556.78
2023-11-05T10:44:47.983Z,97555.00
2023-11-05T10:47:53.585Z,97579.34
2023-11-05T10:50:56.467Z,97578.34
2023-11-05T10:53:59.610Z,97577.41
2023-11-05T10:57:02.368Z,97582.56
2023-11-05T11:00:09.978Z,97578.16
2023-11-05T11:03:13.919Z,97573.81
2023-11-05T11:06:16.778Z,97570.31
2023-11-05T11:09:20.181Z,97566.84
2023-11-05T11:12:35.444Z,97550.22
2023-11-05T11:15:38.199Z,97521.34
2023-11-05T11:18:40.696Z,97538.81
2023-11-05T11:22:07.088Z,97543.91
2023-11-05T11:25:11.204Z,97536.84
2023-11-05T11:28:13.730Z,97552.53
2023-11-05T11:31:16.103Z,97565.44
2023-11-05T11:34:23.091Z,97594.22
2023-11-05T11:37:25.558Z,97599.53
2023-11-05T11:40:27.986Z,97602.16
2023-11-05T11:43:30.509Z,97604.78
2023-11-05T11:46:37.285Z,97611.44
2023-11-05T11:49:39.701Z,97618.16
2023-11-05T11:52:52.667Z,97624.13
2023-11-05T11:55:55.202Z,97634.53
2023-11-05T11:59:02.361Z,97645.97
2023-11-05T12:02:06.773Z,97647.94
2023-11-05T12:05:09.347Z,97637.75
2023-11-05T12:08:13.257Z,97650.63
2023-11-05T12:11:18.021Z,97661.81
2023-11-05T12:14:24.286Z,97668.69
2023-11-05T12:17:26.977Z,97650.34
2023-11-05T12:20:29.443Z,97634.19
2023-11-05T12:23:32.010Z,97624.63
2023-11-05T12:26:34.673Z,97630.06
2023-11-05T12:29:41.186Z,97648.69
2023-11-05T12:32:44.572Z,97659.28
2023-11-05T12:35:47.298Z,97669.44
2023-11-05T12:38:49.683Z,97669.63
2023-11-05T12:41:52.518Z,97665.31
2023-11-05T12:44:55.009Z,97677.97
2023-11-05T12:47:57.490Z,97706.88
2023-11-05T12:51:00.386Z,97715.94
2023-11-05T12:54:03.358Z,97723.06
2023-11-05T12:57:06.534Z,97720.19
2023-11-05T13:00:11.811Z,97727.53
2023-11-05T13:03:14.545Z,97742.44
2023-11-05T13:06:17.194Z,97737.91
2023-11-05T13:09:19.767Z,97737.78
2023-11-05T13:12:22.243Z,97751.75
2023-11-05T13:15:24.801Z,97764.69
2023-11-05T13:18:27.312Z,97766.84
2023-11-05T13:21:32.199Z,97787.91
2023-11-05T13:24:34.832Z,97792.38
2023-11-05T13:27:39.654Z,97795.34
2023-11-05T13:30:42.211Z,97821.06
2023-11-05T13:33:44.909Z,97835.50
2023-11-05T13:36:48.080Z,97848.94
2023-11-05T13:39:50.658Z,97863.84
2023-11-05T13:42:54.638Z,97872.06
2023-11-05T13:45:57.294Z,97890.47
2023-11-05T13:49:00.693Z,97897.16
2023-11-05T13:52:03.173Z,97913.03
2023-11-05T13:55:08.375Z,97910.19
2023-11-05T13:58:11.907Z,97917.63
2023-11-05T14:01:19.325Z,97924.56
2023-11-05T14:04:23.396Z,97947.66
2023-11-05T14:07:27.052Z,97961.38
2023-11-05T14:10:29.583Z,97967.38
2023-11-05T14:13:32.301Z,97977.19
2023-11-05T14:16:37.807Z,97991.69
2023-11-05T14:19:40.379Z,98006.75
2023-11-05T14:22:42.927Z,98013.97
2023-11-05T14:25:45.695Z,98009.03
2023-11-05T14:28:48.700Z,98002.19
2023-11-05T14:31:51.560Z,98006.72
2023-11-05T14:34:54.330Z,98011.22
2023-11-05T14:37:57.447Z,98013.09
2023-11-05T14:41:01.811Z,98033.38
2023-11-05T14:44:05.287Z,98029.22
2023-11-05T14:47:08.359Z,98030.13
2023-11-05T14:50:12.076Z,98038.09
2023-11-05T14:53:14.850Z,98035.59
2023-11-05T14:56:20.505Z,98044.41
2023-11-05T14:59:23.064Z,98050.63
2023-11-05T15:02:25.913Z,98053.31
2023-11-05T15:05:28.791Z,98062.13
2023-11-05T15:08:36.652Z,98068.31
2023-11-05T15:11:41.990Z,98070.13
2023-11-05T15:14:44.775Z,98067.63
2023-11-05T15:17:49.417Z,98065.09
2023-11-05T15:20:52.306Z,98078.25
2023-11-05T15:23:56.604Z,98087.00
2023-11-05T15:26:59.238Z,98096.81
2023-11-05T15:30:02.126Z,98115.22
2023-11-05T15:33:05.963Z,98122.19
2023-11-05T15:36:09.490Z,98123.19
2023-11-05T15:39:12.439Z,98141.63
2023-11-05T15:42:15.065Z,98141.69
2023-11-05T15:45:18.175Z,98152.16
2023-11-05T15:48:22.261Z,98160.09
2023-11-05T15:51:25.155Z,98175.03
2023-11-05T15:54:27.911Z,98181.16
2023-11-05T15:57:30.697Z,98184.69
2023-11-05T16:00:33.530Z,98183.84
2023-11-05T16:03:37.832Z,98180.44
2023-11-05T16:06:41.043Z,98190.03
2023-11-05T16:09:43.723Z,98179.59
2023-11-05T16:12:47.461Z,98194.41
2023-11-05T16:15:52.541Z,98200.53
2023-11-05T16:18:55.649Z,98204.91
2023-11-05T16:21:58.675Z,98217.13
2023-11-05T16:25:02.283Z,98213.66
2023-11-05T16:28:05.181Z,98217.19
2023-11-05T16:31:11.137Z,98224.19
2023-11-05T16:34:16.085Z,98229.44
2023-11-05T16:37:18.616Z,98235.56
2023-11-05T16:40:21.853Z,98234.69
2023-11-05T16:43:24.509Z,98248.63
2023-11-05T16:46:26.908Z,98248.63
2023-11-05T16:49:31.571Z,98251.25
2023-11-05T16:52:34.416Z,98268.63
2023-11-05T16:55:37.248Z,98274.72
2023-11-05T16:58:42.947Z,98282.56
2023-11-05T17:01:46.624Z,98288.66
2023-11-05T17:04:50.315Z,98295.59
2023-11-05T17:07:53.604Z,98291.28
2023-11-05T17:10:56.492Z,98296.50
2023-11-05T17:14:02.065Z,98309.50
2023-11-05T17:17:05.535Z,98309.50
2023-11-05T17:20:09.657Z,98308.63
2023-11-05T17:23:13.552Z,98324.28
2023-11-05T17:26:17.373Z,98325.16
2023-11-05T17:29:20.334Z,98332.09
2023-11-05T17:32:23.523Z,98333.84
2023-11-05T17:35:27.819Z,98332.06
2023-11-05T17:38:30.868Z,98337.28
2023-11-05T17:41:33.426Z,98347.72
2023-11-05T17:44:36.328Z,98347.72
2023-11-05T17:47:42.959Z,98357.28
2023-11-05T17:50:45.951Z,98355.50
2023-11-05T17:53:50.012Z,98351.16
2023-11-05T17:56:54.083Z,98360.69
2023-11-05T17:59:57.302Z,98355.47
2023-11-05T18:03:00.171Z,98356.34
2023-11-05T18:06:02.858Z,98348.50
2023-11-05T18:09:06.829Z,98350.22
2023-11-05T18:12:11.292Z,98354.56
2023-11-05T18:15:14.568Z,98372.81
2023-11-05T18:18:17.284Z,98388.41
2023-11-05T18:21:19.997Z,98386.66
2023-11-05T18:24:27.333Z,98391.81
2023-11-05T18:27:30.361Z,98397.91
2023-11-05T18:30:33.159Z,98403.06
2023-11-05T18:33:36.034Z,98412.59
2023-11-05T18:36:39.556Z,98427.34
2023-11-05T18:39:42.275Z,98444.69
2023-11-05T18:42:44.963Z,98451.63
2023-11-05T18:45:47.675Z,98459.44
2023-11-05T18:48:50.369Z,98448.97
2023-11-05T18:51:52.935Z,98454.19
2023-11-05T18:54:56.680Z,98464.59
2023-11-05T18:58:01.223Z,98471.53
2023-11-05T19:01:04.668Z,98475.00
2023-11-05T19:04:08.033Z,98471.50
2023-11-05T19:07:11.045Z,98481.88
2023-11-05T19:10:14.507Z,98487.09
2023-11-05T19:13:18.212Z,98498.38
2023-11-05T19:16:24.504Z,98507.91
2023-11-05T19:19:27.889Z,98509.63
2023-11-05T19:22:30.963Z,98529.56
2023-11-05T19:25:33.754Z,98546.84
2023-11-05T19:28:36.931Z,98553.81
2023-11-05T19:31:39.895Z,98555.50
2023-11-05T19:34:42.727Z,98565.94
2023-11-05T19:37:46.427Z,98579.91
2023-11-05T19:40:49.438Z,98586.94
2023-11-05T19:43:55.342Z,98573.97
2023-11-05T19:46:58.272Z,98580.13
2023-11-05T19:50:01.549Z,98583.63
2023-11-05T19:53:04.612Z,98589.69
2023-11-05T19:56:12.709Z,98589.69
2023-11-05T19:59:18.886Z,98587.06
2023-11-05T20:02:23.074Z,98586.22
2023-11-05T20:05:27.634Z,98601.91
2023-11-05T20:08:31.621Z,98579.34
2023-11-05T20:11:34.823Z,98592.28
2023-11-05T20:14:37.672Z,98607.03
2023-11-05T20:17:40.710Z,98611.38
2023-11-05T20:20:43.487Z,98600.09
2023-11-05T20:23:46.309Z,98606.13
2023-11-05T20:26:52.392Z,98620.84
2023-11-05T20:29:55.318Z,98631.19
2023-11-05T20:33:00.377Z,98643.34
2023-11-05T20:36:03.264Z,98668.47
2023-11-05T20:39:07.054Z,98683.25
2023-11-05T20:42:10.143Z,98700.50
2023-11-05T20:45:19.356Z,98699.63
2023-11-05T20:48:26.330Z,98710.03
2023-11-05T20:51:29.969Z,98712.59
2023-11-05T20:54:37.995Z,98727.25
2023-11-05T20:57:40.623Z,98735.00
2023-11-05T21:00:43.144Z,98733.25
2023-11-05T21:03:45.600Z,98733.25
2023-11-05T21:06:48.150Z,98732.31
2023-11-05T21:09:51.389Z,98736.56
2023-11-05T21:12:53.925Z,98746.03
2023-11-05T21:15:56.362Z,98752.91
2023-11-05T21:18:59.513Z,98763.34
2023-11-05T21:22:04.521Z,98776.31
2023-11-05T21:25:10.421Z,98771.03
2023-11-05T21:28:12.934Z,98771.94
2023-11-05T21:31:18.483Z,98777.09
2023-11-05T21:34:20.940Z,98772.69
2023-11-05T21:37:27.775Z,98771.78
2023-11-05T21:40:30.387Z,98771.69
2023-11-05T21:43:33.377Z,98772.44
2023-11-05T21:46:35.810Z,98775.00
2023-11-05T21:49:39.766Z,98774.06
2023-11-05T21:52:42.523Z,98774.06
2023-11-05T21:55:45.484Z,98777.34
2023-11-05T21:58:48.374Z,98788.56
2023-11-05T22:01:50.931Z,98791.16
2023-11-05T22:04:55.758Z,98792.88
2023-11-05T22:07:58.303Z,98812.75
2023-11-05T22:11:00.931Z,98829.25
2023-11-05T22:14:03.535Z,98828.28
2023-11-05T22:17:06.483Z,98841.25
2023-11-05T22:20:11.414Z,98843.75
2023-11-05T22:23:14.118Z,98854.13
2023-11-05T22:26:16.788Z,98857.56
2023-11-05T22:29:19.473Z,98865.06
2023-11-05T22:32:22.067Z,98876.38
2023-11-05T22:35:25.903Z,98871.31
2023-11-05T22:38:29.468Z,98868.66
2023-11-05T22:41:33.428Z,98880.75
2023-11-05T22:44:35.854Z,98890.25
2023-11-05T22:47:39.501Z,98895.44
2023-11-05T22:50:44.581Z,98909.41
2023-11-05T22:53:48.179Z,98917.00
2023-11-05T22:56:51.048Z,98923.22
2023-11-05T22:59:53.566Z,98929.31
2023-11-05T23:02:57.152Z,98913.00
2023-11-05T23:06:00.169Z,98921.72
2023-11-05T23:09:02.718Z,98943.34
2023-11-05T23:12:05.507Z,98941.63
2023-11-05T23:15:09.137Z,98943.44
2023-11-05T23:18:12.201Z,98939.31
2023-11-05T23:21:14.814Z,98959.25
2023-11-05T23:24:17.435Z,98967.09
2023-11-05T23:27:20.402Z,98973.16
2023-11-05T23:30:22.835Z,98982.44
2023-11-05T23:33:25.245Z,98986.91
2023-11-05T23:36:27.774Z,98989.50
2023-11-05T23:39:30.355Z,98995.69
2023-11-05T23:42:33.806Z,99003.50
2023-11-05T23:45:38.833Z,98998.31
2023-11-05T23:48:42.390Z,99003.50
2023-11-05T23:51:45.803Z,99006.91
2023-11-05T23:54:49.539Z,99019.72
2023-11-05T23:57:52.680Z,99027.59
